createdAt,value
2018-03-02T00:01:06.207Z,66.74
2018-03-02T00:03:35.261Z,66.52
2018-03-02T00:06:03.529Z,66.17
2018-03-02T00:08:31.812Z,65.18
2018-03-02T00:11:00.089Z,63.69
2018-03-02T00:13:29.125Z,65.96
2018-03-02T00:15:57.404Z,66.94
2018-03-02T00:18:27.620Z,66.17
2018-03-02T00:20:56.664Z,65.92
2018-03-02T00:23:24.937Z,64.62
2018-03-02T00:25:53.222Z,63.64
2018-03-02T00:28:21.497Z,63.32
2018-03-02T00:30:49.776Z,61.89
2018-03-02T00:33:18.804Z,60.98
2018-03-02T00:35:47.084Z,59.72
2018-03-02T00:38:15.355Z,59.82
2018-03-02T00:40:44.405Z,58.54
2018-03-02T00:43:12.677Z,58.04
2018-03-02T00:45:40.964Z,56.49
2018-03-02T00:48:09.256Z,55.96
2018-03-02T00:50:37.508Z,56.44
2018-03-02T00:53:06.544Z,58.04
2018-03-02T00:55:34.828Z,59.22
2018-03-02T00:58:03.095Z,60.53
2018-03-02T01:00:32.148Z,59.71
2018-03-02T01:03:00.420Z,59.45
2018-03-02T01:05:28.704Z,58.20
2018-03-02T01:07:57.296Z,55.25
2018-03-02T01:10:25.575Z,57.17
2018-03-02T01:12:53.848Z,57.91
2018-03-02T01:15:22.897Z,55.37
2018-03-02T01:17:51.166Z,54.54
2018-03-02T01:20:19.451Z,55.56
2018-03-02T01:22:47.717Z,55.30
2018-03-02T01:25:16.760Z,55.73
2018-03-02T01:27:45.033Z,56.66
2018-03-02T01:30:13.313Z,56.78
2018-03-02T01:32:41.581Z,57.81
2018-03-02T01:35:10.628Z,58.28
2018-03-02T01:37:38.897Z,58.32
2018-03-02T01:40:07.177Z,57.60
2018-03-02T01:42:35.448Z,60.00
2018-03-02T01:45:04.596Z,59.16
2018-03-02T01:47:32.868Z,59.00
2018-03-02T01:50:01.150Z,58.06
2018-03-02T01:52:29.415Z,59.79
2018-03-02T01:54:58.462Z,58.01
2018-03-02T01:57:26.737Z,57.81
2018-03-02T01:59:55.016Z,59.89
2018-03-02T02:02:24.052Z,56.98
2018-03-02T02:04:52.332Z,54.66
2018-03-02T02:07:20.600Z,53.35
2018-03-02T02:09:48.876Z,52.33
2018-03-02T02:12:17.912Z,51.70
2018-03-02T02:14:46.196Z,51.74
2018-03-02T02:17:15.237Z,51.38
2018-03-02T02:19:43.520Z,51.00
2018-03-02T02:22:11.796Z,50.66
2018-03-02T02:24:40.092Z,50.37
2018-03-02T02:27:08.361Z,52.57
2018-03-02T02:29:36.640Z,52.11
2018-03-02T02:32:04.913Z,52.50
2018-03-02T02:34:33.966Z,53.54
2018-03-02T02:37:02.257Z,54.42
2018-03-02T02:39:30.536Z,53.68
2018-03-02T02:41:58.810Z,56.69
2018-03-02T02:44:27.084Z,58.69
2018-03-02T02:46:55.344Z,60.75
2018-03-02T02:49:24.410Z,60.68
2018-03-02T02:51:52.691Z,61.13
2018-03-02T02:54:21.880Z,61.09
2018-03-02T02:56:50.161Z,61.69
2018-03-02T02:59:18.437Z,61.32
2018-03-02T03:01:47.493Z,59.78
2018-03-02T03:04:15.765Z,58.07
2018-03-02T03:06:44.044Z,59.21
2018-03-02T03:09:12.316Z,57.27
2018-03-02T03:11:40.596Z,58.11
2018-03-02T03:14:09.632Z,55.39
2018-03-02T03:16:37.907Z,55.32
2018-03-02T03:19:06.180Z,56.74
2018-03-02T03:21:35.233Z,56.52
2018-03-02T03:24:03.500Z,56.97
2018-03-02T03:26:31.784Z,56.31
2018-03-02T03:29:00.056Z,55.35
2018-03-02T03:31:29.117Z,53.33
2018-03-02T03:33:57.380Z,52.83
2018-03-02T03:36:25.660Z,51.64
2018-03-02T03:38:53.927Z,51.58
2018-03-02T03:41:22.207Z,51.91
2018-03-02T03:43:51.255Z,51.89
2018-03-02T03:46:19.517Z,52.47
2018-03-02T03:48:47.805Z,56.25
2018-03-02T03:51:16.126Z,55.68
2018-03-02T03:53:45.132Z,57.23
2018-03-02T03:56:13.400Z,57.68
2018-03-02T03:58:42.283Z,58.49
2018-03-02T04:01:10.560Z,59.85
2018-03-02T04:03:40.517Z,60.91
2018-03-02T04:06:09.723Z,61.64
2018-03-02T04:08:37.991Z,59.70
2018-03-02T04:11:07.020Z,61.06
2018-03-02T04:13:35.300Z,61.67
2018-03-02T04:16:03.572Z,59.10
2018-03-02T04:18:32.620Z,57.93
2018-03-02T04:21:00.887Z,58.12
2018-03-02T04:23:29.171Z,57.05
2018-03-02T04:25:57.559Z,57.46
2018-03-02T04:28:25.843Z,57.10
2018-03-02T04:30:54.111Z,54.97
2018-03-02T04:33:23.190Z,53.99
2018-03-02T04:35:51.432Z,54.43
2018-03-02T04:38:19.713Z,53.35
2018-03-02T04:40:47.984Z,52.26
2018-03-02T04:43:17.020Z,52.09
2018-03-02T04:45:45.308Z,52.50
2018-03-02T04:48:13.579Z,52.97
2018-03-02T04:50:41.855Z,52.20
2018-03-02T04:53:10.891Z,51.93
2018-03-02T04:55:39.172Z,53.47
2018-03-02T04:58:07.460Z,52.78
2018-03-02T05:00:35.741Z,52.35
2018-03-02T05:03:04.013Z,50.74
2018-03-02T05:05:33.064Z,49.71
2018-03-02T05:08:01.343Z,49.30
2018-03-02T05:10:29.632Z,50.02
2018-03-02T05:12:57.906Z,49.70
2018-03-02T05:15:26.196Z,52.07
2018-03-02T05:17:54.468Z,53.30
2018-03-02T05:20:23.515Z,55.36
2018-03-02T05:22:51.805Z,55.87
2018-03-02T05:25:20.097Z,54.18
2018-03-02T05:27:48.344Z,53.07
2018-03-02T05:30:16.629Z,54.62
2018-03-02T05:32:45.659Z,56.03
2018-03-02T05:35:13.946Z,55.52
2018-03-02T05:37:42.208Z,55.45
2018-03-02T05:40:11.252Z,54.80
2018-03-02T05:42:39.524Z,55.69
2018-03-02T05:45:07.808Z,55.16
2018-03-02T05:47:36.081Z,54.58
2018-03-02T05:50:05.148Z,54.98
2018-03-02T05:52:33.412Z,54.73
2018-03-02T05:55:01.689Z,55.16
2018-03-02T05:57:29.956Z,55.38
2018-03-02T05:59:58.989Z,55.19
2018-03-02T06:02:27.253Z,53.83
2018-03-02T06:04:55.532Z,53.46
2018-03-02T06:07:24.568Z,53.73
2018-03-02T06:09:52.864Z,53.43
2018-03-02T06:12:21.135Z,54.11
2018-03-02T06:14:49.400Z,53.05
2018-03-02T06:17:18.448Z,52.93
2018-03-02T06:19:46.705Z,52.58
2018-03-02T06:22:14.986Z,52.63
2018-03-02T06:24:43.248Z,52.59
2018-03-02T06:27:11.528Z,52.94
2018-03-02T06:29:39.788Z,52.17
2018-03-02T06:32:08.064Z,53.48
2018-03-02T06:34:36.324Z,52.83
2018-03-02T06:37:05.393Z,52.80
2018-03-02T06:39:33.629Z,52.28
2018-03-02T06:42:01.912Z,51.83
2018-03-02T06:44:30.204Z,52.42
2018-03-02T06:46:58.475Z,51.62
2018-03-02T06:49:27.510Z,50.77
2018-03-02T06:51:55.789Z,50.10
2018-03-02T06:54:24.056Z,49.96
2018-03-02T06:56:52.327Z,51.07
2018-03-02T06:59:20.607Z,50.29
2018-03-02T07:01:48.876Z,50.15
2018-03-02T07:04:17.161Z,49.20
2018-03-02T07:06:45.407Z,48.44
2018-03-02T07:09:14.433Z,49.60
2018-03-02T07:11:42.718Z,49.10
2018-03-02T07:14:10.976Z,49.25
2018-03-02T07:16:40.012Z,48.98
2018-03-02T07:19:08.284Z,51.02
2018-03-02T07:21:37.346Z,49.72
2018-03-02T07:24:05.600Z,51.09
2018-03-02T07:26:33.873Z,49.52
2018-03-02T07:29:02.131Z,47.61
2018-03-02T07:31:30.416Z,49.26
2018-03-02T07:33:58.679Z,47.96
2018-03-02T07:36:26.960Z,48.31
2018-03-02T07:38:55.216Z,47.13
2018-03-02T07:41:23.501Z,46.88
2018-03-02T07:43:51.760Z,46.73
2018-03-02T07:46:20.804Z,46.66
2018-03-02T07:48:49.068Z,47.02
2018-03-02T07:51:18.092Z,46.58
2018-03-02T07:53:46.360Z,47.28
2018-03-02T07:56:14.619Z,47.86
2018-03-02T07:58:42.895Z,48.22
2018-03-02T08:01:11.553Z,48.10
2018-03-02T08:03:39.824Z,47.89
2018-03-02T08:06:08.852Z,48.03
2018-03-02T08:08:37.129Z,46.75
2018-03-02T08:11:06.151Z,47.74
2018-03-02T08:13:34.419Z,47.50
2018-03-02T08:16:02.684Z,47.76
2018-03-02T08:18:30.964Z,47.89
2018-03-02T08:20:59.223Z,48.38
2018-03-02T08:23:27.509Z,47.53
2018-03-02T08:25:55.764Z,46.29
2018-03-02T08:28:24.032Z,44.77
2018-03-02T08:30:53.056Z,45.69
2018-03-02T08:33:21.324Z,45.33
2018-03-02T08:35:50.348Z,45.57
2018-03-02T08:38:18.615Z,46.29
2018-03-02T08:40:47.721Z,46.75
2018-03-02T08:43:15.988Z,45.35
2018-03-02T08:45:44.240Z,45.86
2018-03-02T08:48:12.507Z,46.19
2018-03-02T08:50:40.763Z,45.18
2018-03-02T08:53:09.042Z,45.11
2018-03-02T08:55:37.292Z,45.11
2018-03-02T08:58:05.560Z,43.72
2018-03-02T09:00:33.816Z,43.59
2018-03-02T09:03:02.080Z,42.74
2018-03-02T09:05:30.348Z,44.30
2018-03-02T09:07:58.610Z,43.97
2018-03-02T09:10:27.636Z,43.51
2018-03-02T09:12:55.900Z,42.26
2018-03-02T09:15:24.164Z,41.25
2018-03-02T09:17:52.428Z,42.40
2018-03-02T09:20:20.760Z,43.48
2018-03-02T09:22:49.036Z,43.65
2018-03-02T09:25:18.064Z,41.63
2018-03-02T09:27:47.089Z,40.70
2018-03-02T09:30:16.104Z,40.54
2018-03-02T09:32:44.389Z,39.36
2018-03-02T09:35:13.407Z,38.67
2018-03-02T09:37:41.672Z,39.94
2018-03-02T09:40:09.924Z,41.66
2018-03-02T09:42:38.960Z,40.97
2018-03-02T09:45:07.212Z,42.28
2018-03-02T09:47:35.488Z,41.57
2018-03-02T09:50:03.739Z,42.11
2018-03-02T09:52:31.996Z,43.31
2018-03-02T09:55:01.019Z,43.72
2018-03-02T09:57:29.280Z,41.94
2018-03-02T09:59:58.305Z,43.31
2018-03-02T10:02:26.577Z,42.60
2018-03-02T10:04:55.597Z,40.86
2018-03-02T10:07:23.864Z,39.98
2018-03-02T10:09:52.128Z,40.35
2018-03-02T10:12:20.400Z,38.98
2018-03-02T10:14:48.651Z,38.28
2018-03-02T10:17:16.919Z,39.64
2018-03-02T10:19:45.938Z,39.18
2018-03-02T10:22:14.205Z,38.81
2018-03-02T10:24:42.465Z,40.69
2018-03-02T10:27:10.740Z,40.05
2018-03-02T10:29:38.991Z,41.40
2018-03-02T10:32:07.256Z,43.42
2018-03-02T10:34:36.280Z,44.08
2018-03-02T10:37:05.325Z,41.40
2018-03-02T10:39:33.592Z,41.31
2018-03-02T10:42:01.850Z,39.49
2018-03-02T10:44:30.873Z,40.14
2018-03-02T10:46:59.136Z,39.96
2018-03-02T10:49:28.176Z,39.63
2018-03-02T10:51:56.476Z,39.72
2018-03-02T10:54:24.749Z,40.05
2018-03-02T10:56:53.010Z,40.50
2018-03-02T10:59:21.283Z,39.66
2018-03-02T11:01:54.345Z,39.24
2018-03-02T11:04:37.508Z,39.99
2018-03-02T11:07:05.770Z,40.66
2018-03-02T11:09:34.031Z,41.00
2018-03-02T11:12:02.292Z,41.98
2018-03-02T11:14:30.556Z,42.43
2018-03-02T11:16:58.813Z,42.82
2018-03-02T11:19:27.076Z,41.80
2018-03-02T11:21:56.101Z,41.54
2018-03-02T11:24:24.368Z,42.96
2018-03-02T11:26:53.389Z,41.88
2018-03-02T11:29:21.980Z,42.19
2018-03-02T11:31:50.240Z,41.86
2018-03-02T11:34:18.504Z,42.36
2018-03-02T11:36:46.769Z,42.20
2018-03-02T11:39:15.046Z,43.19
2018-03-02T11:41:43.300Z,43.32
2018-03-02T11:44:12.329Z,40.80
2018-03-02T11:46:40.586Z,41.13
2018-03-02T11:49:08.848Z,41.98
2018-03-02T11:51:37.100Z,39.83
2018-03-02T11:54:05.401Z,39.53
2018-03-02T11:56:34.388Z,40.29
2018-03-02T11:59:02.651Z,43.09
2018-03-02T12:01:31.683Z,45.38
2018-03-02T12:03:59.948Z,43.44
2018-03-02T12:06:28.968Z,44.16
2018-03-02T12:08:57.244Z,43.72
2018-03-02T12:11:26.269Z,43.56
2018-03-02T12:13:54.536Z,44.09
2018-03-02T12:16:23.555Z,44.34
2018-03-02T12:18:51.825Z,44.03
2018-03-02T12:21:20.853Z,43.56
2018-03-02T12:23:49.887Z,46.46
2018-03-02T12:26:18.148Z,45.83
2018-03-02T12:28:46.411Z,47.18
2018-03-02T12:31:14.668Z,47.17
2018-03-02T12:33:42.988Z,49.29
2018-03-02T12:36:11.189Z,50.33
2018-03-02T12:38:40.223Z,50.78
2018-03-02T12:41:08.485Z,50.64
2018-03-02T12:43:37.516Z,52.26
2018-03-02T12:46:05.775Z,52.21
2018-03-02T12:48:34.908Z,52.78
2018-03-02T12:51:03.160Z,51.76
2018-03-02T12:53:32.203Z,51.62
2018-03-02T12:56:00.460Z,52.23
2018-03-02T12:58:29.500Z,52.34
2018-03-02T13:00:57.755Z,52.53
2018-03-02T13:03:26.792Z,52.57
2018-03-02T13:05:55.059Z,52.05
2018-03-02T13:08:24.089Z,53.69
2018-03-02T13:10:52.344Z,53.09
2018-03-02T13:13:21.383Z,52.91
2018-03-02T13:15:49.644Z,53.02
2018-03-02T13:18:36.473Z,53.81
2018-03-02T13:21:04.964Z,51.60
2018-03-02T13:23:34.006Z,52.55
2018-03-02T13:26:02.270Z,52.60
2018-03-02T13:28:46.292Z,53.03
2018-03-02T13:31:14.552Z,53.54
2018-03-02T13:34:00.671Z,52.56
2018-03-02T13:36:28.987Z,51.45
2018-03-02T13:38:57.249Z,52.15
2018-03-02T13:41:43.412Z,50.05
2018-03-02T13:44:11.679Z,49.47
2018-03-02T13:46:40.708Z,49.58
2018-03-02T13:49:26.843Z,49.90
2018-03-02T13:51:55.092Z,49.10
2018-03-02T13:54:23.394Z,48.58
2018-03-02T13:57:09.356Z,46.84
2018-03-02T13:59:37.620Z,48.06
2018-03-02T14:02:05.878Z,46.59
2018-03-02T14:04:53.044Z,46.45
2018-03-02T14:07:21.315Z,46.65
2018-03-02T14:09:49.603Z,46.34
2018-03-02T14:12:17.863Z,47.52
2018-03-02T14:14:46.128Z,46.54
2018-03-02T14:17:15.167Z,47.99
2018-03-02T14:19:44.188Z,47.20
2018-03-02T14:22:12.454Z,48.69
2018-03-02T14:24:42.311Z,48.02
2018-03-02T14:27:10.568Z,47.61
2018-03-02T14:29:38.844Z,48.01
2018-03-02T14:32:07.872Z,48.48
2018-03-02T14:34:36.133Z,48.04
2018-03-02T14:37:05.160Z,47.75
2018-03-02T14:39:33.462Z,49.51
2018-03-02T14:42:02.453Z,49.07
2018-03-02T14:44:30.703Z,47.99
2018-03-02T14:46:58.967Z,48.14
2018-03-02T14:49:27.215Z,48.45
2018-03-02T14:51:55.483Z,48.89
2018-03-02T14:54:24.499Z,49.11
2018-03-02T14:56:52.765Z,49.03
2018-03-02T14:59:21.048Z,49.05
2018-03-02T15:01:49.308Z,49.49
2018-03-02T15:04:17.563Z,49.29
2018-03-02T15:06:45.828Z,48.66
2018-03-02T15:09:14.848Z,49.43
2018-03-02T15:11:43.114Z,48.93
2018-03-02T15:14:11.363Z,49.84
2018-03-02T15:16:39.627Z,50.91
2018-03-02T15:19:07.879Z,50.73
2018-03-02T15:21:36.915Z,51.24
2018-03-02T15:24:05.174Z,52.43
2018-03-02T15:26:34.206Z,52.54
2018-03-02T15:29:02.467Z,51.58
2018-03-02T15:31:31.492Z,51.60
2018-03-02T15:33:59.762Z,51.95
2018-03-02T15:36:28.792Z,51.50
2018-03-02T15:38:57.047Z,50.87
2018-03-02T15:41:25.315Z,51.59
2018-03-02T15:43:53.576Z,51.76
2018-03-02T15:46:21.840Z,51.94
2018-03-02T15:48:50.099Z,51.69
2018-03-02T15:51:18.366Z,51.16
2018-03-02T15:53:46.620Z,52.61
2018-03-02T15:56:14.892Z,52.83
2018-03-02T15:58:43.147Z,52.98
2018-03-02T16:01:11.420Z,52.38
2018-03-02T16:03:39.674Z,52.15
2018-03-02T16:06:07.940Z,52.60
2018-03-02T16:08:36.963Z,52.23
2018-03-02T16:11:05.232Z,53.21
2018-03-02T16:13:34.248Z,53.58
2018-03-02T16:16:02.525Z,53.56
2018-03-02T16:18:31.544Z,53.86
2018-03-02T16:20:59.808Z,53.94
2018-03-02T16:23:28.826Z,54.51
2018-03-02T16:25:57.110Z,53.54
2018-03-02T16:28:26.131Z,54.16
2018-03-02T16:30:54.400Z,53.28
2018-03-02T16:33:23.422Z,53.40
2018-03-02T16:35:51.684Z,53.45
2018-03-02T16:38:20.707Z,53.86
2018-03-02T16:40:48.975Z,53.99
2018-03-02T16:43:17.999Z,54.10
2018-03-02T16:45:46.284Z,52.91
2018-03-02T16:48:15.300Z,53.45
2018-03-02T16:50:44.006Z,52.81
2018-03-02T16:53:13.082Z,52.54
2018-03-02T16:55:41.365Z,51.71
2018-03-02T16:58:09.617Z,54.32
2018-03-02T17:00:38.651Z,53.89
2018-03-02T17:03:06.908Z,53.83
2018-03-02T17:05:35.211Z,53.64
2018-03-02T17:08:03.431Z,54.35
2018-03-02T17:10:32.455Z,53.87
2018-03-02T17:13:00.723Z,54.34
2018-03-02T17:15:29.748Z,53.98
2018-03-02T17:17:58.020Z,53.60
2018-03-02T17:20:27.046Z,54.23
2018-03-02T17:22:55.302Z,53.69
2018-03-02T17:25:23.558Z,53.31
2018-03-02T17:27:51.828Z,53.23
2018-03-02T17:30:20.086Z,53.05
2018-03-02T17:32:49.116Z,52.79
2018-03-02T17:35:17.371Z,52.80
2018-03-02T17:37:46.403Z,52.60
2018-03-02T17:40:14.659Z,51.73
2018-03-02T17:42:43.691Z,51.75
2018-03-02T17:45:11.985Z,51.71
2018-03-02T17:47:40.256Z,51.99
2018-03-02T17:50:09.279Z,51.82
2018-03-02T17:52:37.559Z,50.94
2018-03-02T17:55:06.580Z,50.53
2018-03-02T17:57:34.843Z,49.93
2018-03-02T18:00:03.914Z,49.56
2018-03-02T18:02:32.131Z,49.37
2018-03-02T18:05:01.159Z,48.92
2018-03-02T18:07:29.439Z,49.79
2018-03-02T18:09:58.450Z,49.70
2018-03-02T18:12:26.719Z,49.45
2018-03-02T18:14:55.747Z,50.68
2018-03-02T18:17:24.011Z,50.66
2018-03-02T18:19:53.039Z,49.90
2018-03-02T18:22:21.324Z,49.43
2018-03-02T18:24:49.578Z,50.40
2018-03-02T18:27:17.848Z,51.37
2018-03-02T18:29:46.111Z,52.17
2018-03-02T18:32:14.379Z,53.26
2018-03-02T18:34:42.637Z,52.49
2018-03-02T18:37:10.907Z,51.80
2018-03-02T18:39:39.167Z,51.54
2018-03-02T18:42:07.435Z,51.89
2018-03-02T18:44:35.693Z,52.68
2018-03-02T18:47:04.727Z,51.89
2018-03-02T18:49:32.998Z,51.30
2018-03-02T18:52:02.031Z,51.20
2018-03-02T18:54:30.300Z,51.67
2018-03-02T18:56:58.562Z,53.90
2018-03-02T18:59:26.820Z,52.25
2018-03-02T19:01:55.091Z,50.89
2018-03-02T19:04:23.351Z,51.16
2018-03-02T19:06:51.629Z,50.04
2018-03-02T19:09:20.643Z,50.42
2018-03-02T19:11:48.911Z,50.14
2018-03-02T19:14:17.163Z,51.78
2018-03-02T19:16:45.427Z,52.25
2018-03-02T19:19:13.687Z,52.58
2018-03-02T19:21:42.755Z,53.34
2018-03-02T19:24:11.011Z,51.37
2018-03-02T19:26:39.279Z,52.51
2018-03-02T19:29:08.308Z,52.04
2018-03-02T19:31:36.572Z,51.70
2018-03-02T19:34:04.827Z,51.78
2018-03-02T19:36:33.083Z,51.98
2018-03-02T19:39:01.351Z,51.30
2018-03-02T19:41:29.607Z,51.89
2018-03-02T19:43:58.639Z,51.94
2018-03-02T19:46:26.903Z,52.23
2018-03-02T19:48:55.930Z,53.19
2018-03-02T19:51:24.187Z,52.61
2018-03-02T19:53:52.459Z,51.59
2018-03-02T19:56:20.715Z,51.93
2018-03-02T19:58:48.984Z,51.72
2018-03-02T20:01:17.247Z,51.48
2018-03-02T20:03:46.344Z,51.65
2018-03-02T20:06:14.559Z,51.59
2018-03-02T20:08:42.827Z,51.19
2018-03-02T20:11:11.890Z,51.45
2018-03-02T20:13:40.124Z,51.16
2018-03-02T20:16:09.148Z,49.57
2018-03-02T20:18:37.418Z,48.78
2018-03-02T20:21:06.448Z,49.88
2018-03-02T20:23:34.716Z,49.91
2018-03-02T20:26:03.743Z,49.94
2018-03-02T20:28:32.007Z,49.89
2018-03-02T20:31:01.036Z,49.58
2018-03-02T20:33:29.304Z,50.36
2018-03-02T20:35:58.328Z,49.42
2018-03-02T20:38:26.599Z,49.49
2018-03-02T20:40:55.627Z,49.78
2018-03-02T20:43:23.887Z,50.69
2018-03-02T20:45:52.911Z,50.37
2018-03-02T20:48:21.179Z,51.10
2018-03-02T20:50:50.220Z,50.19
2018-03-02T20:53:18.483Z,50.67
2018-03-02T20:55:47.507Z,50.29
2018-03-02T20:58:15.824Z,49.97
2018-03-02T21:00:44.044Z,50.14
2018-03-02T21:03:12.311Z,50.21
2018-03-02T21:05:40.575Z,50.90
2018-03-02T21:08:08.847Z,50.91
2018-03-02T21:10:37.106Z,50.44
2018-03-02T21:13:05.373Z,50.79
2018-03-02T21:15:33.631Z,50.95
2018-03-02T21:18:01.900Z,50.88
2018-03-02T21:20:30.156Z,50.79
2018-03-02T21:22:59.205Z,50.49
2018-03-02T21:25:27.442Z,50.70
2018-03-02T21:27:55.707Z,50.70
2018-03-02T21:30:23.972Z,51.55
2018-03-02T21:32:52.235Z,50.87
2018-03-02T21:35:20.492Z,49.71
2018-03-02T21:37:48.759Z,50.08
2018-03-02T21:40:17.015Z,50.10
2018-03-02T21:42:45.279Z,49.90
2018-03-02T21:45:14.300Z,49.52
2018-03-02T21:47:42.556Z,48.68
2018-03-02T21:50:10.827Z,48.52
2018-03-02T21:52:39.083Z,48.66
2018-03-02T21:55:07.352Z,48.66
2018-03-02T21:57:35.606Z,48.95
2018-03-02T22:00:03.871Z,48.37
2018-03-02T22:02:32.129Z,48.28
2018-03-02T22:05:00.396Z,47.88
2018-03-02T22:07:28.652Z,47.67
2018-03-02T22:09:56.920Z,48.12
2018-03-02T22:12:25.175Z,48.78
2018-03-02T22:14:54.207Z,47.91
2018-03-02T22:17:22.472Z,48.83
2018-03-02T22:19:51.427Z,50.38
2018-03-02T22:22:19.679Z,49.77
2018-03-02T22:24:47.946Z,49.47
2018-03-02T22:27:16.203Z,49.72
2018-03-02T22:29:45.239Z,49.13
2018-03-02T22:32:13.494Z,49.62
2018-03-02T22:34:41.759Z,49.12
2018-03-02T22:37:10.018Z,49.72
2018-03-02T22:39:38.280Z,50.35
2018-03-02T22:42:06.554Z,51.38
2018-03-02T22:44:34.802Z,51.01
2018-03-02T22:47:03.056Z,50.61
2018-03-02T22:49:31.319Z,50.74
2018-03-02T22:52:00.341Z,51.06
2018-03-02T22:54:28.603Z,51.84
2018-03-02T22:56:57.637Z,51.53
2018-03-02T22:59:25.903Z,50.61
2018-03-02T23:01:54.930Z,50.18
2018-03-02T23:04:23.206Z,49.91
2018-03-02T23:06:52.235Z,50.37
2018-03-02T23:09:20.506Z,51.31
2018-03-02T23:11:49.532Z,51.31
2018-03-02T23:14:17.800Z,52.36
2018-03-02T23:16:46.819Z,51.77
2018-03-02T23:19:15.088Z,51.73
2018-03-02T23:21:44.811Z,50.89
2018-03-02T23:24:13.847Z,53.08
2018-03-02T23:26:42.103Z,52.99
2018-03-02T23:29:11.146Z,52.22
2018-03-02T23:31:39.399Z,52.01
2018-03-02T23:34:08.436Z,52.44
2018-03-02T23:36:36.691Z,52.59
2018-03-02T23:39:05.724Z,52.30
2018-03-02T23:41:33.980Z,52.75
2018-03-02T23:44:03.011Z,52.17
2018-03-02T23:46:31.271Z,52.99
2018-03-02T23:49:00.308Z,52.91
2018-03-02T23:51:28.559Z,54.07
2018-03-02T23:53:57.597Z,52.55
2018-03-02T23:56:25.850Z,53.01
2018-03-02T23:58:54.115Z,52.46
